sensor_id;sensor_type;location;lat;lon;timestamp;temperature;humidity
18073;DHT22;9161;47.348;9.648;2023-03-01T00:00:29;1.70;99.90
18073;DHT22;9161;47.348;9.648;2023-03-01T00:05:33;1.70;99.90
18073;DHT22;9161;47.348;9.648;2023-03-01T00:10:36;1.60;99.90
18073;DHT22;9161;47.348;9.648;2023-03-01T00:15:41;1.70;99.90
18073;DHT22;9161;47.348;9.648;2023-03-01T00:20:50;1.70;99.90
18073;DHT22;9161;47.348;9.648;2023-03-01T00:25:53;1.60;99.90
18073;DHT22;9161;47.348;9.648;2023-03-01T00:30:56;1.70;99.90
18073;DHT22;9161;47.348;9.648;2023-03-01T00:36:00;1.70;99.90
18073;DHT22;9161;47.348;9.648;2023-03-01T00:41:05;1.70;99.90
18073;DHT22;9161;47.348;9.648;2023-03-01T00:46:10;1.60;99.90
18073;DHT22;9161;47.348;9.648;2023-03-01T00:51:17;1.60;99.90
18073;DHT22;9161;47.348;9.648;2023-03-01T00:56:20;1.60;99.90
18073;DHT22;9161;47.348;9.648;2023-03-01T01:01:25;1.50;99.90
18073;DHT22;9161;47.348;9.648;2023-03-01T01:06:33;1.60;99.90
18073;DHT22;9161;47.348;9.648;2023-03-01T01:11:36;1.60;99.90
18073;DHT22;9161;47.348;9.648;2023-03-01T01:16:39;1.50;99.90
18073;DHT22;9161;47.348;9.648;2023-03-01T01:21:42;1.50;99.90
18073;DHT22;9161;47.348;9.648;2023-03-01T01:26:46;1.60;99.90
18073;DHT22;9161;47.348;9.648;2023-03-01T01:31:48;1.60;99.90
18073;DHT22;9161;47.348;9.648;2023-03-01T01:36:53;1.60;99.90
18073;DHT22;9161;47.348;9.648;2023-03-01T01:41:55;1.60;99.90
18073;DHT22;9161;47.348;9.648;2023-03-01T01:47:01;1.60;99.90
18073;DHT22;9161;47.348;9.648;2023-03-01T01:52:10;1.60;99.90
18073;DHT22;9161;47.348;9.648;2023-03-01T01:57:16;1.60;99.90
18073;DHT22;9161;47.348;9.648;2023-03-01T02:02:20;1.50;99.90
18073;DHT22;9161;47.348;9.648;2023-03-01T02:07:24;1.50;99.90
18073;DHT22;9161;47.348;9.648;2023-03-01T02:12:28;1.50;99.90
18073;DHT22;9161;47.348;9.648;2023-03-01T02:17:32;1.40;99.90
18073;DHT22;9161;47.348;9.648;2023-03-01T02:22:37;1.50;99.90
18073;DHT22;9161;47.348;9.648;2023-03-01T02:27:48;1.70;99.90
18073;DHT22;9161;47.348;9.648;2023-03-01T02:32:56;1.70;99.90
18073;DHT22;9161;47.348;9.648;2023-03-01T02:38:07;1.70;99.90
18073;DHT22;9161;47.348;9.648;2023-03-01T02:43:11;1.80;99.90
18073;DHT22;9161;47.348;9.648;2023-03-01T02:48:15;1.70;99.90
18073;DHT22;9161;47.348;9.648;2023-03-01T02:53:23;1.70;99.90
18073;DHT22;9161;47.348;9.648;2023-03-01T02:58:27;1.70;99.90
18073;DHT22;9161;47.348;9.648;2023-03-01T03:03:31;1.70;99.90
18073;DHT22;9161;47.348;9.648;2023-03-01T03:08:33;1.60;99.90
18073;DHT22;9161;47.348;9.648;2023-03-01T03:13:35;1.60;99.90
18073;DHT22;9161;47.348;9.648;2023-03-01T03:18:40;1.60;99.90
18073;DHT22;9161;47.348;9.648;2023-03-01T03:23:43;1.50;99.90
18073;DHT22;9161;47.348;9.648;2023-03-01T03:28:45;1.40;99.90
18073;DHT22;9161;47.348;9.648;2023-03-01T03:33:49;1.40;99.90
18073;DHT22;9161;47.348;9.648;2023-03-01T03:38:51;1.40;99.90
18073;DHT22;9161;47.348;9.648;2023-03-01T03:43:53;1.40;99.90
18073;DHT22;9161;47.348;9.648;2023-03-01T03:48:57;1.40;99.90
18073;DHT22;9161;47.348;9.648;2023-03-01T03:53:59;1.40;99.90
18073;DHT22;9161;47.348;9.648;2023-03-01T03:59:02;1.40;99.90
18073;DHT22;9161;47.348;9.648;2023-03-01T04:04:06;1.30;99.90
18073;DHT22;9161;47.348;9.648;2023-03-01T04:09:08;1.30;99.90
18073;DHT22;9161;47.348;9.648;2023-03-01T04:14:11;1.30;99.90
18073;DHT22;9161;47.348;9.648;2023-03-01T04:19:14;1.30;99.90
18073;DHT22;9161;47.348;9.648;2023-03-01T04:24:17;1.40;99.90
18073;DHT22;9161;47.348;9.648;2023-03-01T04:29:19;1.50;99.90
18073;DHT22;9161;47.348;9.648;2023-03-01T04:34:22;1.40;99.90
18073;DHT22;9161;47.348;9.648;2023-03-01T04:39:24;1.30;99.90
18073;DHT22;9161;47.348;9.648;2023-03-01T04:44:27;1.30;99.90
18073;DHT22;9161;47.348;9.648;2023-03-01T04:49:30;1.30;99.90
18073;DHT22;9161;47.348;9.648;2023-03-01T04:54:33;1.40;99.90
18073;DHT22;9161;47.348;9.648;2023-03-01T04:59:36;1.40;99.90
18073;DHT22;9161;47.348;9.648;2023-03-01T05:04:39;1.40;99.90
18073;DHT22;9161;47.348;9.648;2023-03-01T05:09:41;1.40;99.90
18073;DHT22;9161;47.348;9.648;2023-03-01T05:14:43;1.50;99.90
18073;DHT22;9161;47.348;9.648;2023-03-01T05:19:47;1.40;99.90
18073;DHT22;9161;47.348;9.648;2023-03-01T05:24:49;1.40;99.90
18073;DHT22;9161;47.348;9.648;2023-03-01T05:29:53;1.40;99.90
18073;DHT22;9161;47.348;9.648;2023-03-01T05:34:56;1.30;99.90
18073;DHT22;9161;47.348;9.648;2023-03-01T05:39:58;1.30;99.90
18073;DHT22;9161;47.348;9.648;2023-03-01T05:45:00;1.30;99.90
18073;DHT22;9161;47.348;9.648;2023-03-01T05:50:05;1.30;99.90
18073;DHT22;9161;47.348;9.648;2023-03-01T05:55:08;1.30;99.90
18073;DHT22;9161;47.348;9.648;2023-03-01T06:00:12;1.20;99.90
18073;DHT22;9161;47.348;9.648;2023-03-01T06:05:16;1.20;99.90
18073;DHT22;9161;47.348;9.648;2023-03-01T06:10:19;1.20;99.90
18073;DHT22;9161;47.348;9.648;2023-03-01T06:15:22;1.20;99.90
18073;DHT22;9161;47.348;9.648;2023-03-01T06:20:28;1.20;99.90
18073;DHT22;9161;47.348;9.648;2023-03-01T06:25:30;1.20;99.90
18073;DHT22;9161;47.348;9.648;2023-03-01T06:30:32;1.20;99.90
18073;DHT22;9161;47.348;9.648;2023-03-01T06:35:36;1.30;99.90
18073;DHT22;9161;47.348;9.648;2023-03-01T06:40:38;1.30;99.90
18073;DHT22;9161;47.348;9.648;2023-03-01T06:45:40;1.40;99.90
18073;DHT22;9161;47.348;9.648;2023-03-01T06:50:45;1.40;99.90
18073;DHT22;9161;47.348;9.648;2023-03-01T06:55:53;1.40;99.90
18073;DHT22;9161;47.348;9.648;2023-03-01T07:00:55;1.50;99.90
18073;DHT22;9161;47.348;9.648;2023-03-01T07:05:59;1.50;99.90
18073;DHT22;9161;47.348;9.648;2023-03-01T07:11:02;1.60;99.90
18073;DHT22;9161;47.348;9.648;2023-03-01T07:16:05;1.60;99.90
18073;DHT22;9161;47.348;9.648;2023-03-01T07:21:11;1.70;99.90
18073;DHT22;9161;47.348;9.648;2023-03-01T07:26:14;1.70;99.90
18073;DHT22;9161;47.348;9.648;2023-03-01T07:31:16;1.80;99.90
18073;DHT22;9161;47.348;9.648;2023-03-01T07:36:20;1.80;99.90
18073;DHT22;9161;47.348;9.648;2023-03-01T07:41:22;1.80;99.90
18073;DHT22;9161;47.348;9.648;2023-03-01T07:46:24;1.90;99.90
18073;DHT22;9161;47.348;9.648;2023-03-01T07:51:28;2.00;99.90
18073;DHT22;9161;47.348;9.648;2023-03-01T07:56:30;2.00;99.90
18073;DHT22;9161;47.348;9.648;2023-03-01T08:01:33;2.00;99.90
18073;DHT22;9161;47.348;9.648;2023-03-01T08:06:37;2.00;99.90
18073;DHT22;9161;47.348;9.648;2023-03-01T08:11:39;2.10;99.90
18073;DHT22;9161;47.348;9.648;2023-03-01T08:16:41;2.20;99.90
18073;DHT22;9161;47.348;9.648;2023-03-01T08:21:45;2.30;99.90
18073;DHT22;9161;47.348;9.648;2023-03-01T08:26:47;2.30;99.90
18073;DHT22;9161;47.348;9.648;2023-03-01T08:31:50;2.40;99.90
18073;DHT22;9161;47.348;9.648;2023-03-01T08:36:54;2.50;99.90
18073;DHT22;9161;47.348;9.648;2023-03-01T08:41:57;2.60;99.90
18073;DHT22;9161;47.348;9.648;2023-03-01T08:46:59;2.60;99.90
18073;DHT22;9161;47.348;9.648;2023-03-01T08:52:04;2.70;99.90
18073;DHT22;9161;47.348;9.648;2023-03-01T08:57:06;2.80;99.90
18073;DHT22;9161;47.348;9.648;2023-03-01T09:02:12;2.90;99.90
18073;DHT22;9161;47.348;9.648;2023-03-01T09:07:16;3.10;99.90
18073;DHT22;9161;47.348;9.648;2023-03-01T09:12:18;3.20;99.90
18073;DHT22;9161;47.348;9.648;2023-03-01T09:17:20;3.40;99.90
18073;DHT22;9161;47.348;9.648;2023-03-01T09:22:24;3.60;99.90
18073;DHT22;9161;47.348;9.648;2023-03-01T09:27:26;3.70;99.90
18073;DHT22;9161;47.348;9.648;2023-03-01T09:32:30;3.70;99.90
18073;DHT22;9161;47.348;9.648;2023-03-01T09:37:35;3.80;99.90
18073;DHT22;9161;47.348;9.648;2023-03-01T09:42:46;3.90;99.90
18073;DHT22;9161;47.348;9.648;2023-03-01T09:47:51;4.20;99.90
18073;DHT22;9161;47.348;9.648;2023-03-01T09:53:01;4.10;99.90
18073;DHT22;9161;47.348;9.648;2023-03-01T09:58:25;4.10;99.90
18073;DHT22;9161;47.348;9.648;2023-03-01T10:03:34;4.90;99.90
18073;DHT22;9161;47.348;9.648;2023-03-01T10:08:42;7.50;99.90
18073;DHT22;9161;47.348;9.648;2023-03-01T10:13:54;7.50;99.90
18073;DHT22;9161;47.348;9.648;2023-03-01T10:19:00;6.80;99.90
18073;DHT22;9161;47.348;9.648;2023-03-01T10:24:12;6.20;99.90
18073;DHT22;9161;47.348;9.648;2023-03-01T10:29:15;6.20;99.90
18073;DHT22;9161;47.348;9.648;2023-03-01T10:34:19;6.10;99.90
18073;DHT22;9161;47.348;9.648;2023-03-01T10:39:25;6.20;99.90
18073;DHT22;9161;47.348;9.648;2023-03-01T10:44:44;6.50;99.90
18073;DHT22;9161;47.348;9.648;2023-03-01T10:49:59;7.40;99.90
18073;DHT22;9161;47.348;9.648;2023-03-01T10:55:08;7.30;99.90
18073;DHT22;9161;47.348;9.648;2023-03-01T11:00:26;7.00;99.90
18073;DHT22;9161;47.348;9.648;2023-03-01T11:05:29;7.00;99.90
18073;DHT22;9161;47.348;9.648;2023-03-01T11:10:36;7.10;99.90
18073;DHT22;9161;47.348;9.648;2023-03-01T11:15:38;7.40;99.90
18073;DHT22;9161;47.348;9.648;2023-03-01T11:20:41;7.40;99.90
18073;DHT22;9161;47.348;9.648;2023-03-01T11:25:49;7.20;99.90
18073;DHT22;9161;47.348;9.648;2023-03-01T11:30:55;7.20;99.90
18073;DHT22;9161;47.348;9.648;2023-03-01T11:36:16;7.00;99.90
18073;DHT22;9161;47.348;9.648;2023-03-01T11:41:25;7.20;99.90
18073;DHT22;9161;47.348;9.648;2023-03-01T11:46:46;7.40;99.90
18073;DHT22;9161;47.348;9.648;2023-03-01T11:51:56;7.50;99.90
18073;DHT22;9161;47.348;9.648;2023-03-01T11:57:07;9.20;99.90
18073;DHT22;9161;47.348;9.648;2023-03-01T12:08:04;9.00;99.90
18073;DHT22;9161;47.348;9.648;2023-03-01T12:13:43;11.20;99.90
18073;DHT22;9161;47.348;9.648;2023-03-01T12:19:04;12.00;99.90
18073;DHT22;9161;47.348;9.648;2023-03-01T12:24:30;11.80;99.90
18073;DHT22;9161;47.348;9.648;2023-03-01T12:29:39;12.30;99.90
18073;DHT22;9161;47.348;9.648;2023-03-01T12:35:06;12.90;99.90
18073;DHT22;9161;47.348;9.648;2023-03-01T12:40:33;13.10;99.90
18073;DHT22;9161;47.348;9.648;2023-03-01T12:45:54;12.00;99.90
18073;DHT22;9161;47.348;9.648;2023-03-01T12:51:02;9.90;99.90
18073;DHT22;9161;47.348;9.648;2023-03-01T12:56:07;8.60;99.90
18073;DHT22;9161;47.348;9.648;2023-03-01T13:01:22;8.20;99.90
18073;DHT22;9161;47.348;9.648;2023-03-01T13:06:30;7.90;99.90
18073;DHT22;9161;47.348;9.648;2023-03-01T13:11:43;7.70;99.90
18073;DHT22;9161;47.348;9.648;2023-03-01T13:16:48;7.80;99.90
18073;DHT22;9161;47.348;9.648;2023-03-01T13:21:52;7.30;99.90
18073;DHT22;9161;47.348;9.648;2023-03-01T13:27:22;6.80;99.90
18073;DHT22;9161;47.348;9.648;2023-03-01T13:32:28;6.70;99.90
18073;DHT22;9161;47.348;9.648;2023-03-01T13:37:48;6.50;99.90
18073;DHT22;9161;47.348;9.648;2023-03-01T13:42:51;6.40;99.90
18073;DHT22;9161;47.348;9.648;2023-03-01T13:48:10;6.70;99.90
18073;DHT22;9161;47.348;9.648;2023-03-01T13:53:17;6.70;99.90
18073;DHT22;9161;47.348;9.648;2023-03-01T13:58:22;6.90;99.90
18073;DHT22;9161;47.348;9.648;2023-03-01T14:03:28;6.50;99.90
18073;DHT22;9161;47.348;9.648;2023-03-01T14:08:31;6.40;99.90
18073;DHT22;9161;47.348;9.648;2023-03-01T14:13:45;6.60;99.90
18073;DHT22;9161;47.348;9.648;2023-03-01T14:18:57;6.70;99.90
18073;DHT22;9161;47.348;9.648;2023-03-01T14:24:03;6.40;99.90
18073;DHT22;9161;47.348;9.648;2023-03-01T14:29:06;5.90;99.90
18073;DHT22;9161;47.348;9.648;2023-03-01T14:34:19;5.80;99.90
18073;DHT22;9161;47.348;9.648;2023-03-01T14:39:25;5.60;99.90
18073;DHT22;9161;47.348;9.648;2023-03-01T14:44:27;5.50;99.90
18073;DHT22;9161;47.348;9.648;2023-03-01T14:49:32;5.30;99.90
18073;DHT22;9161;47.348;9.648;2023-03-01T14:54:40;5.30;99.90
18073;DHT22;9161;47.348;9.648;2023-03-01T14:59:43;5.20;99.90
18073;DHT22;9161;47.348;9.648;2023-03-01T15:04:49;5.10;99.90
18073;DHT22;9161;47.348;9.648;2023-03-01T15:09:52;5.10;99.90
18073;DHT22;9161;47.348;9.648;2023-03-01T15:14:55;4.80;99.90
18073;DHT22;9161;47.348;9.648;2023-03-01T15:20:16;4.70;99.90
18073;DHT22;9161;47.348;9.648;2023-03-01T15:25:20;4.70;99.90
18073;DHT22;9161;47.348;9.648;2023-03-01T15:30:26;4.60;99.90
18073;DHT22;9161;47.348;9.648;2023-03-01T15:35:42;4.50;99.90
18073;DHT22;9161;47.348;9.648;2023-03-01T15:40:50;4.40;99.90
18073;DHT22;9161;47.348;9.648;2023-03-01T15:45:56;4.30;99.90
18073;DHT22;9161;47.348;9.648;2023-03-01T15:51:00;4.10;99.90
18073;DHT22;9161;47.348;9.648;2023-03-01T15:56:03;4.10;99.90
18073;DHT22;9161;47.348;9.648;2023-03-01T16:01:11;4.10;99.90
18073;DHT22;9161;47.348;9.648;2023-03-01T16:06:16;4.00;99.90
18073;DHT22;9161;47.348;9.648;2023-03-01T16:11:19;4.00;99.90
18073;DHT22;9161;47.348;9.648;2023-03-01T16:16:22;4.00;99.90
18073;DHT22;9161;47.348;9.648;2023-03-01T16:21:27;4.00;99.90
18073;DHT22;9161;47.348;9.648;2023-03-01T16:26:29;3.90;99.90
18073;DHT22;9161;47.348;9.648;2023-03-01T16:31:32;3.90;99.90
18073;DHT22;9161;47.348;9.648;2023-03-01T16:36:36;3.80;99.90
18073;DHT22;9161;47.348;9.648;2023-03-01T16:41:39;3.70;99.90
18073;DHT22;9161;47.348;9.648;2023-03-01T16:46:42;3.70;99.90
18073;DHT22;9161;47.348;9.648;2023-03-01T16:51:48;3.60;99.90
18073;DHT22;9161;47.348;9.648;2023-03-01T16:56:51;3.60;99.90
18073;DHT22;9161;47.348;9.648;2023-03-01T17:01:54;3.50;99.90
18073;DHT22;9161;47.348;9.648;2023-03-01T17:06:59;3.40;99.90
18073;DHT22;9161;47.348;9.648;2023-03-01T17:12:02;3.30;99.90
18073;DHT22;9161;47.348;9.648;2023-03-01T17:17:08;3.30;99.90
18073;DHT22;9161;47.348;9.648;2023-03-01T17:22:13;3.30;99.90
18073;DHT22;9161;47.348;9.648;2023-03-01T17:27:16;3.30;99.90
18073;DHT22;9161;47.348;9.648;2023-03-01T17:32:20;3.30;99.90
18073;DHT22;9161;47.348;9.648;2023-03-01T17:37:26;3.30;99.90
18073;DHT22;9161;47.348;9.648;2023-03-01T17:42:29;3.30;99.90
18073;DHT22;9161;47.348;9.648;2023-03-01T17:47:32;3.30;99.90
18073;DHT22;9161;47.348;9.648;2023-03-01T17:52:37;3.40;99.90
18073;DHT22;9161;47.348;9.648;2023-03-01T17:57:41;3.40;99.90
18073;DHT22;9161;47.348;9.648;2023-03-01T18:02:44;3.40;99.90
18073;DHT22;9161;47.348;9.648;2023-03-01T18:07:49;3.30;99.90
18073;DHT22;9161;47.348;9.648;2023-03-01T18:12:53;3.30;99.90
18073;DHT22;9161;47.348;9.648;2023-03-01T18:17:58;3.20;99.90
18073;DHT22;9161;47.348;9.648;2023-03-01T18:23:03;3.20;99.90
18073;DHT22;9161;47.348;9.648;2023-03-01T18:28:06;3.20;99.90
18073;DHT22;9161;47.348;9.648;2023-03-01T18:33:10;3.30;99.90
18073;DHT22;9161;47.348;9.648;2023-03-01T18:38:15;3.30;99.90
18073;DHT22;9161;47.348;9.648;2023-03-01T18:43:19;3.30;99.90
18073;DHT22;9161;47.348;9.648;2023-03-01T18:48:24;3.30;99.90
18073;DHT22;9161;47.348;9.648;2023-03-01T18:53:29;3.20;99.90
18073;DHT22;9161;47.348;9.648;2023-03-01T18:58:33;3.30;99.90
18073;DHT22;9161;47.348;9.648;2023-03-01T19:03:37;3.30;99.90
18073;DHT22;9161;47.348;9.648;2023-03-01T19:08:42;3.30;99.90
18073;DHT22;9161;47.348;9.648;2023-03-01T19:13:46;3.20;99.90
18073;DHT22;9161;47.348;9.648;2023-03-01T19:18:55;3.30;99.90
18073;DHT22;9161;47.348;9.648;2023-03-01T19:24:01;3.20;99.90
18073;DHT22;9161;47.348;9.648;2023-03-01T19:29:05;3.20;99.90
18073;DHT22;9161;47.348;9.648;2023-03-01T19:34:09;3.20;99.90
18073;DHT22;9161;47.348;9.648;2023-03-01T19:39:17;3.20;99.90
18073;DHT22;9161;47.348;9.648;2023-03-01T19:44:22;3.20;99.90
18073;DHT22;9161;47.348;9.648;2023-03-01T19:49:29;3.10;99.90
18073;DHT22;9161;47.348;9.648;2023-03-01T20:00:31;3.10;99.90
18073;DHT22;9161;47.348;9.648;2023-03-01T20:05:38;3.00;99.90
18073;DHT22;9161;47.348;9.648;2023-03-01T20:10:48;3.00;99.90
18073;DHT22;9161;47.348;9.648;2023-03-01T20:15:51;2.90;99.90
18073;DHT22;9161;47.348;9.648;2023-03-01T20:20:56;2.90;99.90
18073;DHT22;9161;47.348;9.648;2023-03-01T20:26:04;3.10;99.90
18073;DHT22;9161;47.348;9.648;2023-03-01T20:31:13;3.00;99.90
18073;DHT22;9161;47.348;9.648;2023-03-01T20:36:19;3.00;99.90
18073;DHT22;9161;47.348;9.648;2023-03-01T20:41:25;2.90;99.90
18073;DHT22;9161;47.348;9.648;2023-03-01T20:46:30;2.90;99.90
18073;DHT22;9161;47.348;9.648;2023-03-01T20:51:35;2.90;99.90
18073;DHT22;9161;47.348;9.648;2023-03-01T20:56:40;3.00;99.90
18073;DHT22;9161;47.348;9.648;2023-03-01T21:01:44;3.00;99.90
18073;DHT22;9161;47.348;9.648;2023-03-01T21:06:47;2.80;99.90
18073;DHT22;9161;47.348;9.648;2023-03-01T21:11:55;2.70;99.90
18073;DHT22;9161;47.348;9.648;2023-03-01T21:16:59;2.70;99.90
18073;DHT22;9161;47.348;9.648;2023-03-01T21:22:03;2.70;99.90
18073;DHT22;9161;47.348;9.648;2023-03-01T21:27:07;2.60;99.90
18073;DHT22;9161;47.348;9.648;2023-03-01T21:32:10;2.60;99.90
18073;DHT22;9161;47.348;9.648;2023-03-01T21:37:13;2.60;99.90
18073;DHT22;9161;47.348;9.648;2023-03-01T21:42:18;2.60;99.90
18073;DHT22;9161;47.348;9.648;2023-03-01T21:47:20;2.60;99.90
18073;DHT22;9161;47.348;9.648;2023-03-01T21:52:23;2.60;99.90
18073;DHT22;9161;47.348;9.648;2023-03-01T21:57:27;2.60;99.90
18073;DHT22;9161;47.348;9.648;2023-03-01T22:02:30;2.60;99.90
18073;DHT22;9161;47.348;9.648;2023-03-01T22:07:33;2.60;99.90
18073;DHT22;9161;47.348;9.648;2023-03-01T22:12:39;2.60;99.90
18073;DHT22;9161;47.348;9.648;2023-03-01T22:17:48;2.60;99.90
18073;DHT22;9161;47.348;9.648;2023-03-01T22:22:51;2.70;99.90
18073;DHT22;9161;47.348;9.648;2023-03-01T22:27:56;2.70;99.90
18073;DHT22;9161;47.348;9.648;2023-03-01T22:32:58;2.70;99.90
18073;DHT22;9161;47.348;9.648;2023-03-01T22:38:01;2.70;99.90
18073;DHT22;9161;47.348;9.648;2023-03-01T22:43:08;2.70;99.90
18073;DHT22;9161;47.348;9.648;2023-03-01T22:48:10;2.80;99.90
18073;DHT22;9161;47.348;9.648;2023-03-01T22:53:39;2.90;99.90
18073;DHT22;9161;47.348;9.648;2023-03-01T22:59:08;2.90;99.90
18073;DHT22;9161;47.348;9.648;2023-03-01T23:04:23;3.00;99.90
18073;DHT22;9161;47.348;9.648;2023-03-01T23:09:27;2.90;99.90
18073;DHT22;9161;47.348;9.648;2023-03-01T23:14:32;2.90;99.90
18073;DHT22;9161;47.348;9.648;2023-03-01T23:19:34;2.80;99.90
18073;DHT22;9161;47.348;9.648;2023-03-01T23:24:36;2.80;99.90
18073;DHT22;9161;47.348;9.648;2023-03-01T23:29:41;2.80;99.90
18073;DHT22;9161;47.348;9.648;2023-03-01T23:34:44;2.70;99.90
18073;DHT22;9161;47.348;9.648;2023-03-01T23:39:46;2.70;99.90
18073;DHT22;9161;47.348;9.648;2023-03-01T23:44:52;2.60;99.90
18073;DHT22;9161;47.348;9.648;2023-03-01T23:49:54;2.50;99.90
18073;DHT22;9161;47.348;9.648;2023-03-01T23:54:57;2.50;99.90
